sensor_id;sensor_type;location;lat;lon;timestamp;P1;durP1;ratioP1;P2;durP2;ratioP2
42602;SDS011;28233;55.748;48.752;2023-06-10T00:00:07;9.05;;;4.95;;
42602;SDS011;28233;55.748;48.752;2023-06-10T00:02:10;8.25;;;5.00;;
42602;SDS011;28233;55.748;48.752;2023-06-10T00:04:14;6.93;;;4.60;;
42602;SDS011;28233;55.748;48.752;2023-06-10T00:06:18;11.38;;;5.07;;
42602;SDS011;28233;55.748;48.752;2023-06-10T00:08:21;7.00;;;4.55;;
42602;SDS011;28233;55.748;48.752;2023-06-10T00:10:24;7.65;;;5.15;;
42602;SDS011;28233;55.748;48.752;2023-06-10T00:12:27;7.57;;;5.53;;
42602;SDS011;28233;55.748;48.752;2023-06-10T00:14:31;10.80;;;5.32;;
42602;SDS011;28233;55.748;48.752;2023-06-10T00:16:34;9.52;;;4.97;;
42602;SDS011;28233;55.748;48.752;2023-06-10T00:18:38;9.15;;;4.82;;
42602;SDS011;28233;55.748;48.752;2023-06-10T00:20:41;7.28;;;4.70;;
42602;SDS011;28233;55.748;48.752;2023-06-10T00:22:44;6.75;;;4.70;;
42602;SDS011;28233;55.748;48.752;2023-06-10T00:24:48;8.38;;;4.78;;
42602;SDS011;28233;55.748;48.752;2023-06-10T00:26:51;7.32;;;4.20;;
42602;SDS011;28233;55.748;48.752;2023-06-10T00:28:53;8.43;;;4.93;;
42602;SDS011;28233;55.748;48.752;2023-06-10T00:30:56;7.32;;;4.18;;
42602;SDS011;28233;55.748;48.752;2023-06-10T00:32:59;7.10;;;5.05;;
42602;SDS011;28233;55.748;48.752;2023-06-10T00:35:03;9.77;;;4.40;;
42602;SDS011;28233;55.748;48.752;2023-06-10T00:37:07;11.30;;;5.28;;
42602;SDS011;28233;55.748;48.752;2023-06-10T00:39:10;8.45;;;5.43;;
42602;SDS011;28233;55.748;48.752;2023-06-10T00:41:12;9.30;;;4.90;;
42602;SDS011;28233;55.748;48.752;2023-06-10T00:43:16;11.50;;;5.75;;
42602;SDS011;28233;55.748;48.752;2023-06-10T00:45:19;12.95;;;6.40;;
42602;SDS011;28233;55.748;48.752;2023-06-10T00:47:21;10.68;;;6.57;;
42602;SDS011;28233;55.748;48.752;2023-06-10T00:49:25;10.18;;;6.70;;
42602;SDS011;28233;55.748;48.752;2023-06-10T00:51:28;10.63;;;7.32;;
42602;SDS011;28233;55.748;48.752;2023-06-10T00:53:31;12.70;;;7.93;;
42602;SDS011;28233;55.748;48.752;2023-06-10T00:55:35;15.15;;;8.55;;
42602;SDS011;28233;55.748;48.752;2023-06-10T00:57:38;14.90;;;7.90;;
42602;SDS011;28233;55.748;48.752;2023-06-10T00:59:42;18.67;;;9.23;;
42602;SDS011;28233;55.748;48.752;2023-06-10T01:01:49;17.02;;;9.68;;
42602;SDS011;28233;55.748;48.752;2023-06-10T01:03:54;18.00;;;9.23;;
42602;SDS011;28233;55.748;48.752;2023-06-10T01:06:09;13.88;;;8.40;;
42602;SDS011;28233;55.748;48.752;2023-06-10T01:08:46;15.25;;;8.60;;
42602;SDS011;28233;55.748;48.752;2023-06-10T01:10:59;10.65;;;7.93;;
42602;SDS011;28233;55.748;48.752;2023-06-10T01:13:07;9.00;;;5.90;;
42602;SDS011;28233;55.748;48.752;2023-06-10T01:15:16;10.77;;;4.95;;
42602;SDS011;28233;55.748;48.752;2023-06-10T01:17:21;12.30;;;5.70;;
42602;SDS011;28233;55.748;48.752;2023-06-10T01:19:24;8.10;;;5.55;;
42602;SDS011;28233;55.748;48.752;2023-06-10T01:21:27;13.52;;;5.70;;
42602;SDS011;28233;55.748;48.752;2023-06-10T01:23:30;9.50;;;5.82;;
42602;SDS011;28233;55.748;48.752;2023-06-10T01:25:33;9.13;;;6.40;;
42602;SDS011;28233;55.748;48.752;2023-06-10T01:27:40;6.90;;;4.93;;
42602;SDS011;28233;55.748;48.752;2023-06-10T01:29:48;9.05;;;4.72;;
42602;SDS011;28233;55.748;48.752;2023-06-10T01:36:23;5.82;;;4.10;;
42602;SDS011;28233;55.748;48.752;2023-06-10T01:38:27;9.02;;;4.10;;
42602;SDS011;28233;55.748;48.752;2023-06-10T01:40:32;6.70;;;3.88;;
42602;SDS011;28233;55.748;48.752;2023-06-10T01:42:37;7.95;;;4.03;;
42602;SDS011;28233;55.748;48.752;2023-06-10T01:44:40;6.65;;;3.75;;
42602;SDS011;28233;55.748;48.752;2023-06-10T01:46:44;6.82;;;4.68;;
42602;SDS011;28233;55.748;48.752;2023-06-10T01:48:47;6.93;;;3.78;;
42602;SDS011;28233;55.748;48.752;2023-06-10T01:50:50;4.95;;;3.72;;
42602;SDS011;28233;55.748;48.752;2023-06-10T01:52:53;5.75;;;3.55;;
42602;SDS011;28233;55.748;48.752;2023-06-10T01:54:55;9.98;;;4.75;;
42602;SDS011;28233;55.748;48.752;2023-06-10T01:56:58;5.32;;;3.17;;
42602;SDS011;28233;55.748;48.752;2023-06-10T01:59:01;5.30;;;3.50;;
42602;SDS011;28233;55.748;48.752;2023-06-10T02:01:05;6.35;;;4.30;;
42602;SDS011;28233;55.748;48.752;2023-06-10T02:03:07;6.47;;;4.47;;
42602;SDS011;28233;55.748;48.752;2023-06-10T02:05:11;11.30;;;4.75;;
42602;SDS011;28233;55.748;48.752;2023-06-10T02:07:14;8.00;;;4.40;;
42602;SDS011;28233;55.748;48.752;2023-06-10T02:09:16;7.18;;;4.75;;
42602;SDS011;28233;55.748;48.752;2023-06-10T02:11:21;8.77;;;5.38;;
42602;SDS011;28233;55.748;48.752;2023-06-10T02:13:24;8.63;;;5.22;;
42602;SDS011;28233;55.748;48.752;2023-06-10T02:15:27;8.75;;;5.55;;
42602;SDS011;28233;55.748;48.752;2023-06-10T02:17:30;9.07;;;5.00;;
42602;SDS011;28233;55.748;48.752;2023-06-10T02:19:52;7.22;;;5.50;;
42602;SDS011;28233;55.748;48.752;2023-06-10T02:21:55;11.02;;;5.78;;
42602;SDS011;28233;55.748;48.752;2023-06-10T02:23:58;13.18;;;5.93;;
42602;SDS011;28233;55.748;48.752;2023-06-10T02:26:01;11.80;;;5.38;;
42602;SDS011;28233;55.748;48.752;2023-06-10T02:28:04;11.18;;;5.47;;
42602;SDS011;28233;55.748;48.752;2023-06-10T02:30:07;13.88;;;6.82;;
42602;SDS011;28233;55.748;48.752;2023-06-10T02:32:12;10.00;;;5.90;;
42602;SDS011;28233;55.748;48.752;2023-06-10T02:34:15;9.55;;;6.20;;
42602;SDS011;28233;55.748;48.752;2023-06-10T02:36:18;8.77;;;5.78;;
42602;SDS011;28233;55.748;48.752;2023-06-10T02:38:21;13.65;;;6.63;;
42602;SDS011;28233;55.748;48.752;2023-06-10T02:40:23;12.52;;;6.20;;
42602;SDS011;28233;55.748;48.752;2023-06-10T02:42:26;10.90;;;6.97;;
42602;SDS011;28233;55.748;48.752;2023-06-10T02:44:29;11.85;;;5.63;;
42602;SDS011;28233;55.748;48.752;2023-06-10T02:46:32;12.63;;;5.80;;
42602;SDS011;28233;55.748;48.752;2023-06-10T02:48:41;7.95;;;6.18;;
42602;SDS011;28233;55.748;48.752;2023-06-10T02:50:46;7.57;;;5.80;;
42602;SDS011;28233;55.748;48.752;2023-06-10T02:52:48;9.23;;;6.20;;
42602;SDS011;28233;55.748;48.752;2023-06-10T02:54:52;9.02;;;6.25;;
42602;SDS011;28233;55.748;48.752;2023-06-10T02:56:55;9.10;;;5.53;;
42602;SDS011;28233;55.748;48.752;2023-06-10T02:58:58;8.55;;;5.85;;
42602;SDS011;28233;55.748;48.752;2023-06-10T03:01:01;11.70;;;6.43;;
42602;SDS011;28233;55.748;48.752;2023-06-10T03:03:04;10.07;;;6.18;;
42602;SDS011;28233;55.748;48.752;2023-06-10T03:05:07;10.77;;;6.78;;
42602;SDS011;28233;55.748;48.752;2023-06-10T03:07:15;9.30;;;6.50;;
42602;SDS011;28233;55.748;48.752;2023-06-10T03:09:18;7.95;;;5.53;;
42602;SDS011;28233;55.748;48.752;2023-06-10T03:11:21;7.72;;;6.07;;
42602;SDS011;28233;55.748;48.752;2023-06-10T03:13:23;8.65;;;5.95;;
42602;SDS011;28233;55.748;48.752;2023-06-10T03:15:26;8.50;;;6.25;;
42602;SDS011;28233;55.748;48.752;2023-06-10T03:17:31;8.38;;;5.55;;
42602;SDS011;28233;55.748;48.752;2023-06-10T03:19:34;6.97;;;5.15;;
42602;SDS011;28233;55.748;48.752;2023-06-10T03:21:43;6.22;;;4.30;;
42602;SDS011;28233;55.748;48.752;2023-06-10T03:23:47;7.68;;;4.88;;
42602;SDS011;28233;55.748;48.752;2023-06-10T03:25:50;8.68;;;5.75;;
42602;SDS011;28233;55.748;48.752;2023-06-10T03:27:52;9.27;;;5.15;;
42602;SDS011;28233;55.748;48.752;2023-06-10T03:29:55;7.97;;;4.38;;
42602;SDS011;28233;55.748;48.752;2023-06-10T03:31:58;8.48;;;4.63;;
42602;SDS011;28233;55.748;48.752;2023-06-10T03:34:01;7.22;;;5.30;;
42602;SDS011;28233;55.748;48.752;2023-06-10T03:36:04;9.13;;;5.18;;
42602;SDS011;28233;55.748;48.752;2023-06-10T03:38:07;9.27;;;4.60;;
42602;SDS011;28233;55.748;48.752;2023-06-10T03:40:10;9.02;;;5.07;;
42602;SDS011;28233;55.748;48.752;2023-06-10T03:42:13;6.10;;;4.30;;
42602;SDS011;28233;55.748;48.752;2023-06-10T03:44:16;7.00;;;5.15;;
42602;SDS011;28233;55.748;48.752;2023-06-10T03:46:19;5.28;;;3.65;;
42602;SDS011;28233;55.748;48.752;2023-06-10T03:48:22;7.55;;;4.55;;
42602;SDS011;28233;55.748;48.752;2023-06-10T03:50:26;8.45;;;5.53;;
42602;SDS011;28233;55.748;48.752;2023-06-10T03:52:29;6.50;;;5.10;;
42602;SDS011;28233;55.748;48.752;2023-06-10T03:54:32;7.65;;;4.93;;
42602;SDS011;28233;55.748;48.752;2023-06-10T03:56:36;10.20;;;4.60;;
42602;SDS011;28233;55.748;48.752;2023-06-10T03:58:39;7.80;;;4.57;;
42602;SDS011;28233;55.748;48.752;2023-06-10T04:00:46;6.35;;;4.78;;
42602;SDS011;28233;55.748;48.752;2023-06-10T04:02:49;5.72;;;3.83;;
42602;SDS011;28233;55.748;48.752;2023-06-10T04:04:54;6.22;;;4.78;;
42602;SDS011;28233;55.748;48.752;2023-06-10T04:06:56;5.47;;;4.22;;
42602;SDS011;28233;55.748;48.752;2023-06-10T04:09:00;9.32;;;4.88;;
42602;SDS011;28233;55.748;48.752;2023-06-10T04:11:02;7.65;;;5.05;;
42602;SDS011;28233;55.748;48.752;2023-06-10T04:13:05;7.95;;;4.72;;
42602;SDS011;28233;55.748;48.752;2023-06-10T04:15:08;8.95;;;5.13;;
42602;SDS011;28233;55.748;48.752;2023-06-10T04:17:11;8.40;;;4.72;;
42602;SDS011;28233;55.748;48.752;2023-06-10T04:19:14;7.50;;;5.45;;
42602;SDS011;28233;55.748;48.752;2023-06-10T04:21:17;8.88;;;4.50;;
42602;SDS011;28233;55.748;48.752;2023-06-10T04:23:23;8.43;;;4.70;;
42602;SDS011;28233;55.748;48.752;2023-06-10T04:25:26;8.23;;;4.78;;
42602;SDS011;28233;55.748;48.752;2023-06-10T04:27:30;8.10;;;5.50;;
42602;SDS011;28233;55.748;48.752;2023-06-10T04:29:33;9.82;;;5.70;;
42602;SDS011;28233;55.748;48.752;2023-06-10T04:31:36;6.82;;;4.53;;
42602;SDS011;28233;55.748;48.752;2023-06-10T04:33:39;8.10;;;5.22;;
42602;SDS011;28233;55.748;48.752;2023-06-10T04:35:42;7.72;;;5.35;;
42602;SDS011;28233;55.748;48.752;2023-06-10T04:37:45;6.35;;;4.45;;
42602;SDS011;28233;55.748;48.752;2023-06-10T04:39:48;10.43;;;4.85;;
42602;SDS011;28233;55.748;48.752;2023-06-10T04:41:51;6.88;;;5.05;;
42602;SDS011;28233;55.748;48.752;2023-06-10T04:43:54;6.28;;;4.70;;
42602;SDS011;28233;55.748;48.752;2023-06-10T04:45:57;6.97;;;4.38;;
42602;SDS011;28233;55.748;48.752;2023-06-10T04:47:59;11.40;;;4.40;;
42602;SDS011;28233;55.748;48.752;2023-06-10T04:50:02;9.90;;;5.32;;
42602;SDS011;28233;55.748;48.752;2023-06-10T04:52:07;8.57;;;4.93;;
42602;SDS011;28233;55.748;48.752;2023-06-10T04:54:10;10.32;;;4.93;;
42602;SDS011;28233;55.748;48.752;2023-06-10T04:56:13;7.38;;;4.70;;
42602;SDS011;28233;55.748;48.752;2023-06-10T04:58:17;6.45;;;3.75;;
42602;SDS011;28233;55.748;48.752;2023-06-10T05:00:20;5.47;;;4.38;;
42602;SDS011;28233;55.748;48.752;2023-06-10T05:02:23;6.20;;;5.03;;
42602;SDS011;28233;55.748;48.752;2023-06-10T05:04:26;8.15;;;4.40;;
42602;SDS011;28233;55.748;48.752;2023-06-10T05:06:29;6.60;;;4.72;;
42602;SDS011;28233;55.748;48.752;2023-06-10T05:08:32;5.75;;;4.40;;
42602;SDS011;28233;55.748;48.752;2023-06-10T05:10:35;9.65;;;4.40;;
42602;SDS011;28233;55.748;48.752;2023-06-10T05:12:38;5.68;;;4.13;;
42602;SDS011;28233;55.748;48.752;2023-06-10T05:14:42;8.57;;;4.53;;
42602;SDS011;28233;55.748;48.752;2023-06-10T05:16:47;8.95;;;4.80;;
42602;SDS011;28233;55.748;48.752;2023-06-10T05:18:50;5.35;;;4.45;;
42602;SDS011;28233;55.748;48.752;2023-06-10T05:20:54;7.40;;;4.65;;
42602;SDS011;28233;55.748;48.752;2023-06-10T05:22:57;5.65;;;4.38;;
42602;SDS011;28233;55.748;48.752;2023-06-10T05:25:00;6.70;;;5.05;;
42602;SDS011;28233;55.748;48.752;2023-06-10T05:27:05;5.85;;;3.80;;
42602;SDS011;28233;55.748;48.752;2023-06-10T05:29:09;5.90;;;4.20;;
42602;SDS011;28233;55.748;48.752;2023-06-10T05:31:12;9.15;;;4.53;;
42602;SDS011;28233;55.748;48.752;2023-06-10T05:33:15;9.27;;;4.70;;
42602;SDS011;28233;55.748;48.752;2023-06-10T05:35:18;5.65;;;4.35;;
42602;SDS011;28233;55.748;48.752;2023-06-10T05:37:21;7.55;;;4.38;;
42602;SDS011;28233;55.748;48.752;2023-06-10T05:39:24;9.85;;;4.10;;
42602;SDS011;28233;55.748;48.752;2023-06-10T05:41:27;5.85;;;4.13;;
42602;SDS011;28233;55.748;48.752;2023-06-10T05:43:29;6.90;;;4.03;;
42602;SDS011;28233;55.748;48.752;2023-06-10T05:45:32;6.07;;;3.92;;
42602;SDS011;28233;55.748;48.752;2023-06-10T05:47:35;5.97;;;4.10;;
42602;SDS011;28233;55.748;48.752;2023-06-10T05:49:38;11.68;;;4.60;;
42602;SDS011;28233;55.748;48.752;2023-06-10T05:51:41;6.85;;;4.80;;
42602;SDS011;28233;55.748;48.752;2023-06-10T05:53:43;6.45;;;4.93;;
42602;SDS011;28233;55.748;48.752;2023-06-10T05:55:48;8.20;;;3.83;;
42602;SDS011;28233;55.748;48.752;2023-06-10T05:58:00;7.47;;;5.00;;
42602;SDS011;28233;55.748;48.752;2023-06-10T06:00:04;7.13;;;5.28;;
42602;SDS011;28233;55.748;48.752;2023-06-10T06:02:07;6.75;;;4.72;;
42602;SDS011;28233;55.748;48.752;2023-06-10T06:04:10;7.85;;;4.45;;
42602;SDS011;28233;55.748;48.752;2023-06-10T06:06:13;7.55;;;4.88;;
42602;SDS011;28233;55.748;48.752;2023-06-10T06:08:16;7.50;;;4.55;;
42602;SDS011;28233;55.748;48.752;2023-06-10T06:10:20;9.38;;;5.53;;
42602;SDS011;28233;55.748;48.752;2023-06-10T06:12:23;7.03;;;4.63;;
42602;SDS011;28233;55.748;48.752;2023-06-10T06:14:26;6.40;;;4.03;;
42602;SDS011;28233;55.748;48.752;2023-06-10T06:16:33;6.20;;;4.00;;
42602;SDS011;28233;55.748;48.752;2023-06-10T06:18:36;6.88;;;4.63;;
42602;SDS011;28233;55.748;48.752;2023-06-10T06:20:39;7.78;;;4.97;;
42602;SDS011;28233;55.748;48.752;2023-06-10T06:22:42;9.02;;;4.05;;
42602;SDS011;28233;55.748;48.752;2023-06-10T06:24:45;5.65;;;4.03;;
42602;SDS011;28233;55.748;48.752;2023-06-10T06:26:49;6.43;;;3.85;;
42602;SDS011;28233;55.748;48.752;2023-06-10T06:28:51;5.70;;;4.40;;
42602;SDS011;28233;55.748;48.752;2023-06-10T06:30:55;6.50;;;3.47;;
42602;SDS011;28233;55.748;48.752;2023-06-10T06:32:59;5.78;;;3.60;;
42602;SDS011;28233;55.748;48.752;2023-06-10T06:35:02;6.18;;;3.45;;
42602;SDS011;28233;55.748;48.752;2023-06-10T06:37:05;5.95;;;2.88;;
42602;SDS011;28233;55.748;48.752;2023-06-10T06:39:08;2.97;;;2.53;;
42602;SDS011;28233;55.748;48.752;2023-06-10T06:41:11;5.10;;;2.92;;
42602;SDS011;28233;55.748;48.752;2023-06-10T06:43:13;7.75;;;5.20;;
42602;SDS011;28233;55.748;48.752;2023-06-10T06:45:16;6.55;;;4.28;;
42602;SDS011;28233;55.748;48.752;2023-06-10T06:47:19;5.72;;;4.07;;
42602;SDS011;28233;55.748;48.752;2023-06-10T06:49:22;4.88;;;2.33;;
42602;SDS011;28233;55.748;48.752;2023-06-10T06:51:25;4.45;;;2.60;;
42602;SDS011;28233;55.748;48.752;2023-06-10T06:53:28;2.95;;;1.90;;
42602;SDS011;28233;55.748;48.752;2023-06-10T06:55:33;4.00;;;2.50;;
42602;SDS011;28233;55.748;48.752;2023-06-10T06:57:36;5.20;;;2.05;;
42602;SDS011;28233;55.748;48.752;2023-06-10T06:59:39;3.22;;;2.03;;
42602;SDS011;28233;55.748;48.752;2023-06-10T07:01:42;4.78;;;2.13;;
42602;SDS011;28233;55.748;48.752;2023-06-10T07:03:44;3.88;;;1.98;;
42602;SDS011;28233;55.748;48.752;2023-06-10T07:05:48;5.30;;;2.88;;
42602;SDS011;28233;55.748;48.752;2023-06-10T07:07:50;4.38;;;2.42;;
42602;SDS011;28233;55.748;48.752;2023-06-10T07:09:57;3.95;;;2.60;;
42602;SDS011;28233;55.748;48.752;2023-06-10T07:12:00;4.38;;;2.90;;
42602;SDS011;28233;55.748;48.752;2023-06-10T07:14:03;6.10;;;3.30;;
42602;SDS011;28233;55.748;48.752;2023-06-10T07:16:05;6.43;;;3.70;;
42602;SDS011;28233;55.748;48.752;2023-06-10T07:18:08;6.47;;;4.00;;
42602;SDS011;28233;55.748;48.752;2023-06-10T07:20:11;7.35;;;3.60;;
42602;SDS011;28233;55.748;48.752;2023-06-10T07:22:14;5.13;;;3.65;;
42602;SDS011;28233;55.748;48.752;2023-06-10T07:24:17;4.15;;;3.17;;
42602;SDS011;28233;55.748;48.752;2023-06-10T07:26:22;5.97;;;3.60;;
42602;SDS011;28233;55.748;48.752;2023-06-10T07:28:25;4.90;;;3.30;;
42602;SDS011;28233;55.748;48.752;2023-06-10T07:30:29;3.55;;;2.53;;
42602;SDS011;28233;55.748;48.752;2023-06-10T07:32:32;5.18;;;3.30;;
42602;SDS011;28233;55.748;48.752;2023-06-10T07:34:35;6.40;;;3.17;;
42602;SDS011;28233;55.748;48.752;2023-06-10T07:36:38;6.20;;;2.97;;
42602;SDS011;28233;55.748;48.752;2023-06-10T07:38:41;4.95;;;2.95;;
42602;SDS011;28233;55.748;48.752;2023-06-10T07:40:44;5.45;;;2.30;;
42602;SDS011;28233;55.748;48.752;2023-06-10T07:42:47;6.38;;;2.33;;
42602;SDS011;28233;55.748;48.752;2023-06-10T07:44:50;4.72;;;2.55;;
42602;SDS011;28233;55.748;48.752;2023-06-10T07:46:53;3.75;;;2.42;;
42602;SDS011;28233;55.748;48.752;2023-06-10T07:48:56;3.95;;;2.45;;
42602;SDS011;28233;55.748;48.752;2023-06-10T07:50:59;6.15;;;3.20;;
42602;SDS011;28233;55.748;48.752;2023-06-10T07:53:02;6.85;;;2.88;;
42602;SDS011;28233;55.748;48.752;2023-06-10T07:55:05;6.60;;;2.22;;
42602;SDS011;28233;55.748;48.752;2023-06-10T07:57:09;8.15;;;2.00;;
42602;SDS011;28233;55.748;48.752;2023-06-10T07:59:13;4.40;;;2.05;;
42602;SDS011;28233;55.748;48.752;2023-06-10T08:01:16;9.25;;;2.05;;
42602;SDS011;28233;55.748;48.752;2023-06-10T08:03:19;4.40;;;2.60;;
42602;SDS011;28233;55.748;48.752;2023-06-10T08:05:22;4.85;;;1.90;;
42602;SDS011;28233;55.748;48.752;2023-06-10T08:07:25;4.50;;;2.70;;
42602;SDS011;28233;55.748;48.752;2023-06-10T08:09:28;9.80;;;1.92;;
42602;SDS011;28233;55.748;48.752;2023-06-10T08:11:30;3.95;;;2.58;;
42602;SDS011;28233;55.748;48.752;2023-06-10T08:13:33;3.83;;;2.10;;
42602;SDS011;28233;55.748;48.752;2023-06-10T08:15:36;4.35;;;2.00;;
42602;SDS011;28233;55.748;48.752;2023-06-10T08:17:39;3.50;;;1.92;;
42602;SDS011;28233;55.748;48.752;2023-06-10T08:19:42;7.10;;;2.92;;
42602;SDS011;28233;55.748;48.752;2023-06-10T08:21:45;3.35;;;2.25;;
42602;SDS011;28233;55.748;48.752;2023-06-10T08:23:49;2.95;;;1.70;;
42602;SDS011;28233;55.748;48.752;2023-06-10T08:25:55;4.13;;;2.22;;
42602;SDS011;28233;55.748;48.752;2023-06-10T08:27:58;8.55;;;2.63;;
42602;SDS011;28233;55.748;48.752;2023-06-10T08:30:01;4.25;;;2.05;;
42602;SDS011;28233;55.748;48.752;2023-06-10T08:32:07;3.70;;;1.77;;
42602;SDS011;28233;55.748;48.752;2023-06-10T08:34:10;2.70;;;1.80;;
42602;SDS011;28233;55.748;48.752;2023-06-10T08:36:14;2.47;;;1.63;;
42602;SDS011;28233;55.748;48.752;2023-06-10T08:38:17;3.72;;;2.05;;
42602;SDS011;28233;55.748;48.752;2023-06-10T08:40:19;3.17;;;1.75;;
42602;SDS011;28233;55.748;48.752;2023-06-10T08:44:37;5.88;;;1.92;;
42602;SDS011;28233;55.748;48.752;2023-06-10T08:46:41;3.20;;;1.92;;
42602;SDS011;28233;55.748;48.752;2023-06-10T08:48:47;4.25;;;1.98;;
42602;SDS011;28233;55.748;48.752;2023-06-10T08:50:56;3.58;;;2.05;;
42602;SDS011;28233;55.748;48.752;2023-06-10T08:53:00;3.45;;;2.22;;
42602;SDS011;28233;55.748;48.752;2023-06-10T08:55:04;3.67;;;2.10;;
42602;SDS011;28233;55.748;48.752;2023-06-10T08:57:32;3.88;;;1.70;;
42602;SDS011;28233;55.748;48.752;2023-06-10T08:59:36;2.83;;;1.92;;
42602;SDS011;28233;55.748;48.752;2023-06-10T09:01:39;3.08;;;1.63;;
42602;SDS011;28233;55.748;48.752;2023-06-10T09:03:42;2.67;;;1.60;;
42602;SDS011;28233;55.748;48.752;2023-06-10T09:05:45;6.45;;;1.65;;
42602;SDS011;28233;55.748;48.752;2023-06-10T09:07:49;3.20;;;1.45;;
42602;SDS011;28233;55.748;48.752;2023-06-10T09:09:54;3.58;;;1.60;;
42602;SDS011;28233;55.748;48.752;2023-06-10T09:11:58;3.10;;;1.23;;
42602;SDS011;28233;55.748;48.752;2023-06-10T09:14:01;2.40;;;1.23;;
42602;SDS011;28233;55.748;48.752;2023-06-10T09:16:04;8.25;;;1.50;;
42602;SDS011;28233;55.748;48.752;2023-06-10T09:18:07;1.92;;;1.27;;
42602;SDS011;28233;55.748;48.752;2023-06-10T09:20:10;2.70;;;1.02;;
42602;SDS011;28233;55.748;48.752;2023-06-10T09:22:14;1.90;;;1.23;;
42602;SDS011;28233;55.748;48.752;2023-06-10T09:24:17;1.40;;;1.10;;
42602;SDS011;28233;55.748;48.752;2023-06-10T09:26:20;2.58;;;1.40;;
42602;SDS011;28233;55.748;48.752;2023-06-10T09:28:30;3.97;;;1.50;;
42602;SDS011;28233;55.748;48.752;2023-06-10T09:30:34;2.20;;;1.20;;
42602;SDS011;28233;55.748;48.752;2023-06-10T09:32:40;2.97;;;1.10;;
42602;SDS011;28233;55.748;48.752;2023-06-10T09:34:43;3.08;;;1.27;;
42602;SDS011;28233;55.748;48.752;2023-06-10T09:36:46;7.95;;;1.60;;
42602;SDS011;28233;55.748;48.752;2023-06-10T09:38:49;3.03;;;1.50;;
42602;SDS011;28233;55.748;48.752;2023-06-10T09:40:55;3.90;;;1.55;;
42602;SDS011;28233;55.748;48.752;2023-06-10T09:42:58;2.65;;;1.38;;
42602;SDS011;28233;55.748;48.752;2023-06-10T09:45:03;2.20;;;1.20;;
42602;SDS011;28233;55.748;48.752;2023-06-10T09:47:08;4.53;;;1.17;;
42602;SDS011;28233;55.748;48.752;2023-06-10T09:49:21;3.65;;;1.13;;
42602;SDS011;28233;55.748;48.752;2023-06-10T09:51:24;3.03;;;2.10;;
42602;SDS011;28233;55.748;48.752;2023-06-10T09:53:27;4.00;;;0.90;;
42602;SDS011;28233;55.748;48.752;2023-06-10T09:55:32;3.40;;;1.00;;
42602;SDS011;28233;55.748;48.752;2023-06-10T09:57:36;1.85;;;0.93;;
42602;SDS011;28233;55.748;48.752;2023-06-10T09:59:39;3.55;;;0.98;;
42602;SDS011;28233;55.748;48.752;2023-06-10T10:01:42;4.60;;;1.65;;
42602;SDS011;28233;55.748;48.752;2023-06-10T10:03:51;3.75;;;1.15;;
42602;SDS011;28233;55.748;48.752;2023-06-10T10:05:58;3.72;;;0.73;;
42602;SDS011;28233;55.748;48.752;2023-06-10T10:08:03;5.55;;;1.45;;
42602;SDS011;28233;55.748;48.752;2023-06-10T10:10:06;4.13;;;0.90;;
42602;SDS011;28233;55.748;48.752;2023-06-10T10:12:11;4.05;;;0.80;;
42602;SDS011;28233;55.748;48.752;2023-06-10T10:14:15;2.08;;;1.13;;
42602;SDS011;28233;55.748;48.752;2023-06-10T10:16:25;2.95;;;1.15;;
42602;SDS011;28233;55.748;48.752;2023-06-10T10:18:36;1.60;;;0.80;;
42602;SDS011;28233;55.748;48.752;2023-06-10T10:20:46;2.28;;;1.13;;
42602;SDS011;28233;55.748;48.752;2023-06-10T10:22:52;1.67;;;0.85;;
42602;SDS011;28233;55.748;48.752;2023-06-10T10:24:59;2.40;;;0.88;;
42602;SDS011;28233;55.748;48.752;2023-06-10T10:27:07;0.90;;;0.52;;
42602;SDS011;28233;55.748;48.752;2023-06-10T10:29:39;1.58;;;1.00;;
42602;SDS011;28233;55.748;48.752;2023-06-10T10:31:42;3.03;;;1.00;;
42602;SDS011;28233;55.748;48.752;2023-06-10T10:36:03;1.42;;;0.70;;
42602;SDS011;28233;55.748;48.752;2023-06-10T10:38:07;1.38;;;0.95;;
42602;SDS011;28233;55.748;48.752;2023-06-10T10:40:12;3.22;;;0.70;;
42602;SDS011;28233;55.748;48.752;2023-06-10T10:42:16;2.90;;;0.60;;
42602;SDS011;28233;55.748;48.752;2023-06-10T10:44:20;6.38;;;0.90;;
42602;SDS011;28233;55.748;48.752;2023-06-10T10:46:23;1.65;;;1.02;;
42602;SDS011;28233;55.748;48.752;2023-06-10T10:48:27;3.35;;;0.82;;
42602;SDS011;28233;55.748;48.752;2023-06-10T10:50:37;3.03;;;0.77;;
42602;SDS011;28233;55.748;48.752;2023-06-10T10:52:51;3.92;;;0.70;;
42602;SDS011;28233;55.748;48.752;2023-06-10T10:54:56;1.27;;;0.70;;
42602;SDS011;28233;55.748;48.752;2023-06-10T10:59:14;1.42;;;0.52;;
42602;SDS011;28233;55.748;48.752;2023-06-10T11:01:22;8.60;;;1.15;;
42602;SDS011;28233;55.748;48.752;2023-06-10T11:03:29;3.20;;;0.70;;
42602;SDS011;28233;55.748;48.752;2023-06-10T11:05:36;0.80;;;0.50;;
42602;SDS011;28233;55.748;48.752;2023-06-10T11:07:41;0.95;;;0.60;;
42602;SDS011;28233;55.748;48.752;2023-06-10T11:10:02;1.33;;;0.68;;
42602;SDS011;28233;55.748;48.752;2023-06-10T11:12:12;1.67;;;0.65;;
42602;SDS011;28233;55.748;48.752;2023-06-10T11:14:26;2.58;;;0.52;;
42602;SDS011;28233;55.748;48.752;2023-06-10T11:16:31;1.88;;;1.00;;
42602;SDS011;28233;55.748;48.752;2023-06-10T11:18:41;0.75;;;0.40;;
42602;SDS011;28233;55.748;48.752;2023-06-10T11:20:45;0.45;;;0.45;;
42602;SDS011;28233;55.748;48.752;2023-06-10T11:23:01;2.35;;;0.43;;
42602;SDS011;28233;55.748;48.752;2023-06-10T11:25:05;0.82;;;0.60;;
42602;SDS011;28233;55.748;48.752;2023-06-10T11:27:23;1.88;;;0.50;;
42602;SDS011;28233;55.748;48.752;2023-06-10T11:29:30;1.77;;;0.75;;
42602;SDS011;28233;55.748;48.752;2023-06-10T11:31:42;3.75;;;0.50;;
42602;SDS011;28233;55.748;48.752;2023-06-10T11:33:47;1.35;;;0.70;;
42602;SDS011;28233;55.748;48.752;2023-06-10T11:35:54;1.52;;;0.68;;
42602;SDS011;28233;55.748;48.752;2023-06-10T11:37:57;4.10;;;1.08;;
42602;SDS011;28233;55.748;48.752;2023-06-10T11:40:01;4.00;;;0.93;;
42602;SDS011;28233;55.748;48.752;2023-06-10T11:42:06;1.88;;;0.80;;
42602;SDS011;28233;55.748;48.752;2023-06-10T11:44:10;1.65;;;0.80;;
42602;SDS011;28233;55.748;48.752;2023-06-10T11:46:20;1.48;;;0.98;;
42602;SDS011;28233;55.748;48.752;2023-06-10T11:48:23;4.97;;;0.80;;
42602;SDS011;28233;55.748;48.752;2023-06-10T11:50:32;5.53;;;0.90;;
42602;SDS011;28233;55.748;48.752;2023-06-10T11:52:38;1.25;;;0.55;;
42602;SDS011;28233;55.748;48.752;2023-06-10T11:54:46;3.92;;;0.70;;
42602;SDS011;28233;55.748;48.752;2023-06-10T11:56:59;2.75;;;0.70;;
42602;SDS011;28233;55.748;48.752;2023-06-10T11:59:03;3.65;;;1.20;;
42602;SDS011;28233;55.748;48.752;2023-06-10T12:01:09;1.73;;;0.82;;
42602;SDS011;28233;55.748;48.752;2023-06-10T12:03:14;3.92;;;0.95;;
42602;SDS011;28233;55.748;48.752;2023-06-10T12:05:18;1.55;;;0.40;;
42602;SDS011;28233;55.748;48.752;2023-06-10T12:07:21;2.53;;;0.38;;
42602;SDS011;28233;55.748;48.752;2023-06-10T12:09:26;1.42;;;0.43;;
42602;SDS011;28233;55.748;48.752;2023-06-10T12:11:31;5.07;;;0.80;;
42602;SDS011;28233;55.748;48.752;2023-06-10T12:13:34;1.38;;;0.50;;
42602;SDS011;28233;55.748;48.752;2023-06-10T12:15:37;0.93;;;0.52;;
42602;SDS011;28233;55.748;48.752;2023-06-10T12:17:42;1.20;;;0.47;;
42602;SDS011;28233;55.748;48.752;2023-06-10T12:19:45;1.60;;;0.50;;
42602;SDS011;28233;55.748;48.752;2023-06-10T12:21:49;1.08;;;0.68;;
42602;SDS011;28233;55.748;48.752;2023-06-10T12:24:02;1.83;;;0.35;;
42602;SDS011;28233;55.748;48.752;2023-06-10T12:26:10;5.43;;;1.40;;
42602;SDS011;28233;55.748;48.752;2023-06-10T12:28:12;2.92;;;0.80;;